Time;durP1;ratioP1;P1;durP2;ratioP2;P2;SDS_P1;SDS_P2;PMS_P1;PMS_P2;Temp;Humidity;BMP_temperature;BMP_pressure;BME280_temperature;BME280_humidity;BME280_pressure;Samples;Min_cycle;Max_cycle;Signal;HPM_P1;HPM_P2
2023/07/07 00:01:31;;;;;;;8.83;4.23;;;;;;;;;;6247527;28;20075;-86
2023/07/07 00:04:31;;;;;;;9.35;5.97;;;;;;;;;;6242675;28;20025;-87
2023/07/07 00:07:32;;;;;;;12.10;6.53;;;;;;;;;;6246268;28;20294;-86
2023/07/07 00:10:32;;;;;;;9.85;5.43;;;;;;;;;;6245699;28;20077;-87
2023/07/07 00:13:32;;;;;;;10.48;5.15;;;;;;;;;;6249374;28;20321;-88
2023/07/07 00:16:36;;;;;;;10.52;5.82;;;;;;;;;;6245166;28;20790;-85
2023/07/07 00:19:37;;;;;;;11.18;5.68;;;;;;;;;;6247321;28;20095;-87
2023/07/07 00:22:37;;;;;;;14.32;5.90;;;;;;;;;;6235436;28;20491;-87
2023/07/07 00:25:37;;;;;;;10.48;5.75;;;;;;;;;;6248292;28;20021;-86
2023/07/07 00:28:37;;;;;;;12.33;5.60;;;;;;;;;;6245925;28;20113;-85
2023/07/07 00:31:39;;;;;;;11.67;5.90;;;;;;;;;;6249558;28;20027;-86
2023/07/07 00:34:39;;;;;;;11.57;5.97;;;;;;;;;;6247748;28;20274;-87
2023/07/07 00:37:39;;;;;;;14.37;5.50;;;;;;;;;;6250691;28;20391;-87
2023/07/07 00:40:40;;;;;;;13.00;7.65;;;;;;;;;;6250856;28;20275;-82
2023/07/07 00:43:58;;;;;;;11.70;6.35;;;;;;;;;;6250705;28;20041;-80
2023/07/07 00:46:58;;;;;;;13.82;6.47;;;;;;;;;;6248741;28;20033;-82
2023/07/07 00:49:58;;;;;;;10.75;5.47;;;;;;;;;;6242550;28;20030;-84
2023/07/07 00:52:59;;;;;;;9.93;6.07;;;;;;;;;;6247553;28;20040;-86
2023/07/07 00:56:01;;;;;;;13.33;5.57;;;;;;;;;;6251335;28;20021;-85
2023/07/07 00:59:02;;;;;;;;;;;;;;;;;;6243153;28;20112;-86
2023/07/07 01:02:06;;;;;;;8.60;4.78;;;;;;;;;;6244172;28;19924;-83
2023/07/07 01:05:06;;;;;;;10.20;4.88;;;;;;;;;;6244510;28;20029;-85
2023/07/07 01:08:07;;;;;;;13.13;6.23;;;;;;;;;;6252350;28;20398;-85
2023/07/07 01:11:08;;;;;;;9.15;5.15;;;;;;;;;;6250219;28;20264;-85
2023/07/07 01:14:13;;;;;;;9.32;6.20;;;;;;;;;;6253294;28;20013;-86
2023/07/07 01:17:28;;;;;;;12.00;6.90;;;;;;;;;;6257238;28;20028;-85
2023/07/07 01:20:32;;;;;;;9.52;5.63;;;;;;;;;;6260784;28;20056;-86
2023/07/07 01:23:43;;;;;;;13.98;6.00;;;;;;;;;;6259410;28;20022;-85
2023/07/07 01:26:43;;;;;;;11.00;6.03;;;;;;;;;;6256772;28;20109;-85
2023/07/07 01:29:46;;;;;;;7.57;5.17;;;;;;;;;;6260659;28;20021;-87
2023/07/07 01:32:46;;;;;;;9.55;5.10;;;;;;;;;;6257162;28;20338;-82
2023/07/07 01:35:46;;;;;;;8.20;4.85;;;;;;;;;;6259530;28;20207;-80
2023/07/07 01:38:47;;;;;;;8.90;5.47;;;;;;;;;;6260100;28;20055;-83
2023/07/07 01:41:50;;;;;;;10.90;5.27;;;;;;;;;;6262070;28;20037;-81
2023/07/07 01:45:04;;;;;;;10.55;6.10;;;;;;;;;;6260676;28;20037;-85
2023/07/07 01:48:10;;;;;;;10.35;4.95;;;;;;;;;;6256480;28;20059;-88
2023/07/07 01:51:11;;;;;;;8.43;5.30;;;;;;;;;;6237935;28;20112;-87
2023/07/07 01:54:13;;;;;;;13.88;5.93;;;;;;;;;;6244479;28;20028;-74
2023/07/07 01:57:14;;;;;;;11.43;7.15;;;;;;;;;;6240991;28;20033;-74
2023/07/07 02:00:16;;;;;;;10.95;6.55;;;;;;;;;;6243306;28;20025;-74
2023/07/07 02:03:17;;;;;;;11.43;5.68;;;;;;;;;;6239978;28;20107;-74
2023/07/07 02:06:17;;;;;;;15.80;5.93;;;;;;;;;;6212749;28;20579;-74
2023/07/07 02:09:18;;;;;;;11.77;7.30;;;;;;;;;;6242775;28;20032;-75
2023/07/07 02:12:18;;;;;;;10.68;6.55;;;;;;;;;;6243115;28;20009;-75
2023/07/07 02:15:20;;;;;;;12.07;6.75;;;;;;;;;;6237501;28;20021;-75
2023/07/07 02:18:20;;;;;;;11.18;6.28;;;;;;;;;;6242677;28;20419;-74
2023/07/07 02:21:20;;;;;;;11.00;6.13;;;;;;;;;;6239616;28;20104;-73
2023/07/07 02:24:20;;;;;;;16.53;5.43;;;;;;;;;;6239295;28;20022;-73
2023/07/07 02:27:20;;;;;;;13.27;5.43;;;;;;;;;;6239380;28;20128;-74
2023/07/07 02:30:21;;;;;;;9.90;6.35;;;;;;;;;;6242832;28;20337;-74
2023/07/07 02:33:30;;;;;;;13.47;8.40;;;;;;;;;;6236483;28;20057;-74
2023/07/07 02:36:30;;;;;;;16.48;7.82;;;;;;;;;;6242266;28;20024;-75
2023/07/07 02:39:31;;;;;;;13.38;7.32;;;;;;;;;;6242526;28;20022;-75
2023/07/07 02:42:31;;;;;;;13.27;7.23;;;;;;;;;;6242208;28;20056;-85
2023/07/07 02:45:32;;;;;;;13.70;8.20;;;;;;;;;;6246382;28;20025;-86
2023/07/07 02:48:32;;;;;;;18.33;7.93;;;;;;;;;;6247290;28;20068;-88
2023/07/07 02:51:33;;;;;;;9.43;5.00;;;;;;;;;;6246296;28;20294;-87
2023/07/07 02:54:33;;;;;;;11.93;7.10;;;;;;;;;;6246684;28;20026;-87
2023/07/07 02:57:33;;;;;;;14.43;8.48;;;;;;;;;;6252870;28;20127;-88
2023/07/07 03:00:34;;;;;;;13.33;7.37;;;;;;;;;;6249041;28;20029;-86
2023/07/07 03:03:34;;;;;;;10.38;6.28;;;;;;;;;;6259432;28;20257;-84
2023/07/07 03:06:34;;;;;;;13.77;6.47;;;;;;;;;;6275073;28;20037;-84
2023/07/07 03:09:34;;;;;;;12.65;6.47;;;;;;;;;;6271183;28;20021;-86
2023/07/07 03:12:34;;;;;;;10.53;6.17;;;;;;;;;;6250858;28;20341;-85
2023/07/07 03:15:39;;;;;;;15.15;7.75;;;;;;;;;;6249432;28;20349;-85
2023/07/07 03:18:40;;;;;;;14.80;7.55;;;;;;;;;;6245514;28;20083;-87
2023/07/07 03:21:41;;;;;;;12.77;7.00;;;;;;;;;;6245861;28;20022;-89
2023/07/07 03:24:41;;;;;;;12.15;6.43;;;;;;;;;;6249038;28;20036;-87
2023/07/07 03:27:41;;;;;;;13.75;7.00;;;;;;;;;;6247748;28;20557;-89
2023/07/07 03:30:41;;;;;;;12.00;6.18;;;;;;;;;;6247821;28;20021;-89
2023/07/07 03:33:44;;;;;;;15.27;7.63;;;;;;;;;;6249210;28;20456;-90
2023/07/07 03:36:44;;;;;;;16.08;7.63;;;;;;;;;;6236227;28;20282;-88
2023/07/07 03:39:44;;;;;;;11.73;6.65;;;;;;;;;;6246983;28;20033;-85
2023/07/07 03:42:45;;;;;;;13.83;6.40;;;;;;;;;;6248072;28;20145;-85
2023/07/07 03:45:46;;;;;;;10.75;5.68;;;;;;;;;;6247351;28;20021;-86
2023/07/07 03:48:48;;;;;;;10.10;7.07;;;;;;;;;;6246953;28;20068;-87
2023/07/07 03:51:48;;;;;;;14.27;6.45;;;;;;;;;;6247311;28;20323;-83
2023/07/07 03:54:49;;;;;;;13.67;6.80;;;;;;;;;;6246448;28;20484;-84
2023/07/07 03:57:49;;;;;;;12.20;7.13;;;;;;;;;;6246474;28;20306;-86
2023/07/07 04:00:49;;;;;;;13.85;7.82;;;;;;;;;;6246896;28;20060;-86
2023/07/07 04:03:49;;;;;;;13.73;7.90;;;;;;;;;;6247670;28;20030;-88
2023/07/07 04:06:53;;;;;;;15.45;7.75;;;;;;;;;;6246873;28;20033;-88
2023/07/07 04:09:53;;;;;;;14.15;7.70;;;;;;;;;;6248471;28;20021;-86
2023/07/07 04:12:53;;;;;;;12.13;6.95;;;;;;;;;;6239285;28;20025;-86
2023/07/07 04:16:02;;;;;;;14.65;8.40;;;;;;;;;;6245489;28;20023;-87
2023/07/07 04:19:02;;;;;;;13.93;8.00;;;;;;;;;;6260882;28;20068;-85
2023/07/07 04:22:03;;;;;;;15.23;9.50;;;;;;;;;;6270833;28;20033;-84
2023/07/07 04:25:08;;;;;;;13.47;8.77;;;;;;;;;;6270444;28;20016;-75
2023/07/07 04:28:08;;;;;;;14.43;9.43;;;;;;;;;;6269946;28;20393;-75
2023/07/07 04:31:09;;;;;;;18.93;9.53;;;;;;;;;;6269426;28;20108;-75
2023/07/07 04:34:10;;;;;;;13.90;8.07;;;;;;;;;;6270693;28;20017;-89
2023/07/07 04:37:10;;;;;;;14.87;8.50;;;;;;;;;;6271387;28;20471;-87
2023/07/07 04:40:10;;;;;;;17.00;8.23;;;;;;;;;;6270995;28;20387;-86
2023/07/07 04:43:11;;;;;;;16.93;9.37;;;;;;;;;;6271067;28;20032;-89
2023/07/07 04:46:12;;;;;;;15.53;9.57;;;;;;;;;;6272649;28;20467;-88
2023/07/07 04:49:12;;;;;;;18.13;8.57;;;;;;;;;;6270711;28;20445;-85
2023/07/07 04:52:12;;;;;;;17.97;9.23;;;;;;;;;;6232326;28;20025;-86
2023/07/07 04:55:12;;;;;;;17.73;9.17;;;;;;;;;;6268524;28;20033;-85
2023/07/07 04:58:13;;;;;;;19.00;9.97;;;;;;;;;;6270918;28;20743;-87
2023/07/07 05:01:17;;;;;;;19.85;10.00;;;;;;;;;;6265849;28;20387;-86
2023/07/07 05:04:17;;;;;;;15.60;9.68;;;;;;;;;;6266488;28;20646;-88
2023/07/07 05:07:17;;;;;;;18.03;9.23;;;;;;;;;;6234731;28;20025;-86
2023/07/07 05:10:17;;;;;;;15.43;8.95;;;;;;;;;;6269975;28;20021;-84
2023/07/07 05:13:18;;;;;;;19.13;8.67;;;;;;;;;;6270492;28;20474;-85
2023/07/07 05:16:20;;;;;;;15.15;8.95;;;;;;;;;;6269504;28;20093;-84
2023/07/07 05:19:21;;;;;;;15.60;8.20;;;;;;;;;;6251363;28;20055;-87
2023/07/07 05:22:22;;;;;;;15.47;8.60;;;;;;;;;;6264508;28;20053;-87
2023/07/07 05:25:22;;;;;;;15.75;7.93;;;;;;;;;;6270022;28;20487;-86
2023/07/07 05:28:22;;;;;;;19.70;9.60;;;;;;;;;;6260668;28;20017;-84
2023/07/07 05:31:22;;;;;;;13.33;8.07;;;;;;;;;;6266372;28;20021;-86
2023/07/07 05:34:23;;;;;;;16.90;8.13;;;;;;;;;;6269734;28;20021;-87
2023/07/07 05:37:23;;;;;;;17.43;8.77;;;;;;;;;;6269520;28;20021;-83
2023/07/07 05:40:23;;;;;;;19.67;8.73;;;;;;;;;;6269234;28;20104;-83
2023/07/07 05:43:24;;;;;;;12.33;7.37;;;;;;;;;;6264949;28;20017;-74
2023/07/07 05:46:24;;;;;;;16.67;8.48;;;;;;;;;;6250206;28;20028;-74
2023/07/07 05:49:24;;;;;;;15.30;8.40;;;;;;;;;;6268045;28;20044;-74
2023/07/07 05:52:25;;;;;;;13.30;7.03;;;;;;;;;;6249821;28;20514;-75
2023/07/07 05:55:28;;;;;;;16.07;8.83;;;;;;;;;;6264635;28;20044;-75
2023/07/07 05:58:29;;;;;;;16.83;8.77;;;;;;;;;;6268101;28;20099;-75
2023/07/07 06:01:30;;;;;;;13.55;7.00;;;;;;;;;;6261052;28;20036;-75
2023/07/07 06:04:30;;;;;;;15.20;8.52;;;;;;;;;;6264532;28;20025;-75
2023/07/07 06:07:31;;;;;;;15.60;7.32;;;;;;;;;;6261419;28;20045;-75
2023/07/07 06:10:32;;;;;;;17.80;8.73;;;;;;;;;;6267181;28;20041;-75
2023/07/07 06:13:33;;;;;;;13.85;7.30;;;;;;;;;;6266629;28;20861;-84
2023/07/07 06:16:33;;;;;;;14.10;8.00;;;;;;;;;;6268687;28;20091;-83
2023/07/07 06:19:33;;;;;;;19.87;8.53;;;;;;;;;;6267726;28;20041;-83
2023/07/07 06:22:34;;;;;;;14.20;7.45;;;;;;;;;;6250149;28;20020;-84
2023/07/07 06:25:34;;;;;;;15.25;8.63;;;;;;;;;;6249932;28;20028;-83
2023/07/07 06:28:34;;;;;;;16.50;8.15;;;;;;;;;;6258663;28;20469;-83
2023/07/07 06:31:35;;;;;;;19.33;8.68;;;;;;;;;;6261288;28;20017;-81
2023/07/07 06:34:35;;;;;;;12.97;7.87;;;;;;;;;;6269076;28;20020;-83
2023/07/07 06:37:35;;;;;;;19.93;8.13;;;;;;;;;;6263704;28;20021;-83
2023/07/07 06:40:35;;;;;;;22.30;8.63;;;;;;;;;;6265627;28;20479;-82
2023/07/07 06:43:35;;;;;;;;;;;;;;;;;;6265896;28;20032;-81
2023/07/07 06:46:36;;;;;;;24.95;10.57;;;;;;;;;;6271661;28;19935;-82
2023/07/07 06:49:37;;;;;;;;;;;;;;;;;;6272380;28;20024;-84
2023/07/07 06:52:37;;;;;;;23.35;10.07;;;;;;;;;;6270534;28;19909;-84
2023/07/07 06:55:38;;;;;;;18.80;8.93;;;;;;;;;;6278345;28;20052;-81
2023/07/07 06:58:38;;;;;;;;;;;;;;;;;;6266274;28;20032;-83
2023/07/07 07:01:39;;;;;;;17.30;7.10;;;;;;;;;;6269247;28;19913;-83
2023/07/07 07:04:40;;;;;;;21.08;7.07;;;;;;;;;;6266380;28;20025;-82
2023/07/07 07:07:40;;;;;;;23.10;7.05;;;;;;;;;;6269341;28;20017;-83
2023/07/07 07:10:40;;;;;;;19.13;7.40;;;;;;;;;;6268872;28;20017;-82
2023/07/07 07:13:40;;;;;;;18.67;6.50;;;;;;;;;;6263978;28;20166;-76
2023/07/07 07:16:41;;;;;;;12.25;6.03;;;;;;;;;;6261855;28;20100;-77
2023/07/07 07:19:41;;;;;;;13.47;5.87;;;;;;;;;;6246946;28;20044;-77
2023/07/07 07:22:41;;;;;;;11.38;4.65;;;;;;;;;;6248439;28;20434;-76
2023/07/07 07:25:42;;;;;;;13.23;4.77;;;;;;;;;;6266265;28;20399;-76
2023/07/07 07:28:42;;;;;;;10.90;4.57;;;;;;;;;;6248022;28;20067;-77
2023/07/07 07:31:43;;;;;;;12.20;5.03;;;;;;;;;;6262285;28;20019;-77
2023/07/07 07:34:44;;;;;;;10.30;4.63;;;;;;;;;;6248411;28;20021;-76
2023/07/07 07:37:45;;;;;;;7.47;4.15;;;;;;;;;;6258570;28;20035;-77
2023/07/07 07:40:45;;;;;;;13.63;6.00;;;;;;;;;;6266591;28;20017;-76
2023/07/07 07:43:45;;;;;;;11.30;5.03;;;;;;;;;;6256317;28;20037;-76
2023/07/07 07:46:46;;;;;;;5.47;3.20;;;;;;;;;;6252967;28;20917;-77
2023/07/07 07:49:47;;;;;;;9.48;3.60;;;;;;;;;;6265161;28;20025;-77
2023/07/07 07:52:47;;;;;;;11.52;4.30;;;;;;;;;;6268274;28;20135;-77
2023/07/07 07:55:48;;;;;;;6.68;3.15;;;;;;;;;;6265137;28;20467;-78
2023/07/07 07:58:48;;;;;;;5.07;3.13;;;;;;;;;;6269007;28;20175;-77
2023/07/07 08:01:48;;;;;;;3.13;2.53;;;;;;;;;;6267087;28;20448;-77
2023/07/07 08:04:48;;;;;;;6.23;3.03;;;;;;;;;;6270771;28;20067;-77
2023/07/07 08:07:49;;;;;;;3.20;2.10;;;;;;;;;;6268642;28;20051;-77
2023/07/07 08:10:49;;;;;;;3.73;2.47;;;;;;;;;;6269902;28;20025;-77
2023/07/07 08:13:49;;;;;;;5.10;2.37;;;;;;;;;;6264227;28;20027;-77
2023/07/07 08:16:51;;;;;;;4.53;2.63;;;;;;;;;;6270062;28;20017;-77
2023/07/07 08:19:53;;;;;;;5.78;2.50;;;;;;;;;;6273284;28;20090;-76
2023/07/07 08:22:54;;;;;;;4.68;2.60;;;;;;;;;;6267851;28;20041;-77
2023/07/07 08:25:54;;;;;;;6.03;2.10;;;;;;;;;;6263537;28;20056;-76
2023/07/07 08:28:54;;;;;;;6.70;2.33;;;;;;;;;;6265846;28;20036;-76
2023/07/07 08:31:58;;;;;;;6.22;2.50;;;;;;;;;;6266316;28;20541;-77
2023/07/07 08:34:58;;;;;;;5.35;2.50;;;;;;;;;;6261766;28;20116;-82
2023/07/07 08:37:59;;;;;;;6.37;2.40;;;;;;;;;;6268478;28;20060;-81
2023/07/07 08:40:59;;;;;;;6.82;2.40;;;;;;;;;;6267757;28;20025;-82
2023/07/07 08:43:59;;;;;;;;;;;;;;;;;;6270227;28;20024;-81
2023/07/07 08:47:07;;;;;;;5.68;2.60;;;;;;;;;;6269685;28;19944;-78
2023/07/07 08:50:10;;;;;;;4.35;2.00;;;;;;;;;;6267398;28;20463;-79
2023/07/07 08:53:23;;;;;;;4.95;2.65;;;;;;;;;;6266901;28;20032;-83
2023/07/07 08:56:35;;;;;;;3.10;1.80;;;;;;;;;;6269031;28;20060;-84
2023/07/07 08:59:45;;;;;;;6.53;2.30;;;;;;;;;;6270666;28;20388;-82
2023/07/07 09:02:49;;;;;;;5.03;2.17;;;;;;;;;;6256600;28;20045;-82
2023/07/07 09:06:08;;;;;;;4.90;2.35;;;;;;;;;;6274101;28;20255;-83
2023/07/07 09:09:15;;;;;;;5.47;2.33;;;;;;;;;;6273204;28;20376;-83
2023/07/07 09:12:38;;;;;;;4.95;2.35;;;;;;;;;;6266078;28;20431;-82
2023/07/07 09:15:40;;;;;;;9.60;3.08;;;;;;;;;;6269770;28;20016;-84
2023/07/07 09:18:59;;;;;;;5.88;2.70;;;;;;;;;;6265493;28;20388;-82
2023/07/07 09:22:05;;;;;;;4.70;2.58;;;;;;;;;;6265047;28;20032;-83
2023/07/07 09:25:19;;;;;;;6.50;2.58;;;;;;;;;;6274346;28;20024;-82
2023/07/07 09:28:20;;;;;;;4.65;1.88;;;;;;;;;;6259309;28;20044;-83
2023/07/07 09:31:25;;;;;;;7.33;2.10;;;;;;;;;;6266742;28;20029;-82
2023/07/07 09:34:25;;;;;;;4.28;2.30;;;;;;;;;;6267429;28;20356;-82
2023/07/07 09:37:26;;;;;;;4.93;2.10;;;;;;;;;;6261884;28;20100;-82
2023/07/07 09:40:30;;;;;;;3.43;2.27;;;;;;;;;;6268637;28;20040;-82
2023/07/07 09:43:49;;;;;;;3.20;2.00;;;;;;;;;;6268658;28;20024;-77
2023/07/07 09:46:58;;;;;;;6.43;2.67;;;;;;;;;;6267167;28;20438;-76
2023/07/07 09:50:04;;;;;;;4.75;1.90;;;;;;;;;;6268281;28;20479;-76
2023/07/07 09:53:11;;;;;;;4.72;2.20;;;;;;;;;;6253207;28;20017;-76
2023/07/07 09:56:13;;;;;;;5.30;2.60;;;;;;;;;;6265225;28;20377;-76
2023/07/07 09:59:16;;;;;;;8.57;2.47;;;;;;;;;;6262603;28;20472;-75
2023/07/07 10:02:18;;;;;;;4.63;2.05;;;;;;;;;;6265974;28;20677;-76
2023/07/07 10:05:23;;;;;;;6.57;2.85;;;;;;;;;;6266079;28;20093;-76
2023/07/07 10:08:23;;;;;;;5.13;2.15;;;;;;;;;;6275100;28;20013;-76
2023/07/07 10:11:32;;;;;;;7.10;3.13;;;;;;;;;;6269740;28;20364;-78
2023/07/07 10:14:33;;;;;;;2.15;1.63;;;;;;;;;;6266571;28;20021;-76
2023/07/07 10:17:52;;;;;;;3.55;2.08;;;;;;;;;;6266507;28;20021;-77
2023/07/07 10:20:55;;;;;;;5.40;2.28;;;;;;;;;;6266921;28;20037;-76
2023/07/07 10:23:56;;;;;;;5.13;1.88;;;;;;;;;;6266507;28;20427;-76
2023/07/07 10:26:57;;;;;;;;;;;;;;;;;;6262090;28;20039;-77
2023/07/07 10:30:03;;;;;;;2.75;2.10;;;;;;;;;;6259817;28;19959;-77
2023/07/07 10:33:03;;;;;;;5.68;2.15;;;;;;;;;;6263310;28;20064;-77
2023/07/07 10:36:03;;;;;;;;;;;;;;;;;;6263357;28;20496;-77
2023/07/07 10:39:05;;;;;;;5.40;2.20;;;;;;;;;;6254309;28;19940;-77
2023/07/07 10:42:08;;;;;;;5.70;2.20;;;;;;;;;;6258812;28;20028;-82
2023/07/07 10:45:08;;;;;;;4.85;2.08;;;;;;;;;;6263344;28;20021;-82
2023/07/07 10:48:12;;;;;;;6.28;2.08;;;;;;;;;;6253954;28;20692;-81
2023/07/07 10:51:26;;;;;;;4.57;2.05;;;;;;;;;;6256311;28;20028;-81
2023/07/07 10:54:26;;;;;;;3.33;2.15;;;;;;;;;;6245601;28;20534;-81
2023/07/07 10:57:35;;;;;;;4.00;1.83;;;;;;;;;;6252249;28;20151;-82
2023/07/07 11:00:35;;;;;;;3.53;1.70;;;;;;;;;;6261001;28;20056;-77
2023/07/07 11:03:57;;;;;;;8.07;1.80;;;;;;;;;;6267405;28;20475;-82
2023/07/07 11:07:23;;;;;;;3.63;2.53;;;;;;;;;;6260839;28;20035;-82
2023/07/07 11:10:39;;;;;;;2.60;1.67;;;;;;;;;;6270036;28;20471;-82
2023/07/07 11:13:42;;;;;;;4.35;2.45;;;;;;;;;;6258076;28;20377;-83
2023/07/07 11:17:08;;;;;;;4.93;2.22;;;;;;;;;;6265390;28;20084;-82
2023/07/07 11:20:11;;;;;;;3.72;1.92;;;;;;;;;;6262313;28;20041;-82
2023/07/07 11:23:12;;;;;;;6.13;2.22;;;;;;;;;;6262320;28;20087;-82
2023/07/07 11:26:34;;;;;;;5.65;1.92;;;;;;;;;;6268071;28;20029;-81
2023/07/07 11:29:41;;;;;;;3.90;2.33;;;;;;;;;;6215253;28;20091;-82
2023/07/07 11:32:57;;;;;;;3.92;1.60;;;;;;;;;;6267458;28;20490;-82
2023/07/07 11:36:06;;;;;;;6.03;2.00;;;;;;;;;;6273665;28;20522;-82
2023/07/07 11:39:07;;;;;;;8.20;1.75;;;;;;;;;;6271894;28;20586;-83
2023/07/07 11:42:23;;;;;;;3.78;1.67;;;;;;;;;;6261776;28;20112;-82
2023/07/07 11:45:28;;;;;;;3.20;1.52;;;;;;;;;;6264764;28;20033;-82
2023/07/07 11:48:45;;;;;;;2.80;1.85;;;;;;;;;;6267672;28;20024;-81
2023/07/07 11:52:02;;;;;;;3.80;1.85;;;;;;;;;;6268117;28;20024;-82
2023/07/07 11:55:06;;;;;;;5.85;2.05;;;;;;;;;;6254759;28;20020;-77
2023/07/07 11:58:14;;;;;;;4.78;2.00;;;;;;;;;;6267813;28;20060;-77
2023/07/07 12:01:21;;;;;;;3.65;1.83;;;;;;;;;;6270724;28;20032;-77
2023/07/07 12:04:22;;;;;;;3.88;1.98;;;;;;;;;;6270197;28;20052;-82
2023/07/07 12:07:24;;;;;;;4.37;1.87;;;;;;;;;;6259215;28;20542;-82
2023/07/07 12:10:26;;;;;;;4.75;2.33;;;;;;;;;;6271665;28;20468;-81
2023/07/07 12:13:30;;;;;;;4.18;1.80;;;;;;;;;;6272373;28;20130;-83
2023/07/07 12:16:31;;;;;;;3.58;2.10;;;;;;;;;;6271589;28;20138;-81
2023/07/07 12:19:38;;;;;;;4.13;1.70;;;;;;;;;;6271147;28;20584;-82
2023/07/07 12:22:40;;;;;;;4.20;2.03;;;;;;;;;;6271386;28;20040;-83
2023/07/07 12:25:46;;;;;;;4.63;2.00;;;;;;;;;;6258418;28;20079;-83
2023/07/07 12:28:48;;;;;;;3.35;1.80;;;;;;;;;;6269953;28;20024;-82
2023/07/07 12:31:49;;;;;;;3.25;1.83;;;;;;;;;;6273635;28;20128;-82
2023/07/07 12:35:01;;;;;;;4.93;1.85;;;;;;;;;;6268015;28;20021;-81
2023/07/07 12:38:15;;;;;;;3.03;1.88;;;;;;;;;;6275410;28;20443;-81
2023/07/07 12:41:17;;;;;;;4.75;1.88;;;;;;;;;;6275318;28;20028;-82
2023/07/07 12:44:20;;;;;;;3.90;2.03;;;;;;;;;;6269371;28;20104;-81
2023/07/07 12:47:31;;;;;;;5.43;1.95;;;;;;;;;;6269929;28;20043;-82
2023/07/07 12:50:38;;;;;;;3.80;1.80;;;;;;;;;;6272772;28;20024;-82
2023/07/07 12:53:49;;;;;;;4.28;1.98;;;;;;;;;;6275427;28;20033;-83
2023/07/07 12:57:16;;;;;;;2.50;1.65;;;;;;;;;;6274773;28;20028;-85
2023/07/07 13:00:26;;;;;;;3.67;1.80;;;;;;;;;;6272384;28;20128;-84
2023/07/07 13:03:26;;;;;;;6.82;2.10;;;;;;;;;;6273034;28;20395;-82
2023/07/07 13:06:36;;;;;;;2.33;1.50;;;;;;;;;;6275884;28;20059;-82
2023/07/07 13:09:45;;;;;;;4.47;1.83;;;;;;;;;;6273637;28;20717;-83
2023/07/07 13:12:46;;;;;;;3.38;1.77;;;;;;;;;;6270097;28;20043;-75
2023/07/07 13:15:48;;;;;;;5.57;2.08;;;;;;;;;;6269220;28;20020;-77
2023/07/07 13:18:48;;;;;;;3.38;1.73;;;;;;;;;;6268598;28;20099;-77
2023/07/07 13:21:49;;;;;;;2.03;1.53;;;;;;;;;;6266840;28;20025;-76
2023/07/07 13:24:49;;;;;;;4.35;1.70;;;;;;;;;;6266545;28;20029;-76
2023/07/07 13:27:53;;;;;;;4.67;2.23;;;;;;;;;;6268245;28;20475;-77
2023/07/07 13:30:54;;;;;;;5.93;2.00;;;;;;;;;;6273762;28;20033;-75
2023/07/07 13:33:55;;;;;;;3.03;1.85;;;;;;;;;;6268084;28;20025;-76
2023/07/07 13:36:55;;;;;;;4.47;1.80;;;;;;;;;;6266380;28;20514;-77
2023/07/07 13:39:56;;;;;;;5.10;2.20;;;;;;;;;;6266147;28;20097;-76
2023/07/07 13:42:58;;;;;;;2.83;1.70;;;;;;;;;;6263406;28;20028;-79
2023/07/07 13:46:02;;;;;;;2.38;1.70;;;;;;;;;;6264734;28;20442;-76
2023/07/07 13:49:05;;;;;;;3.38;1.88;;;;;;;;;;6266304;28;20132;-77
2023/07/07 13:52:13;;;;;;;6.95;1.67;;;;;;;;;;6256252;28;20027;-77
2023/07/07 13:55:14;;;;;;;2.22;1.35;;;;;;;;;;6266377;28;20017;-77
2023/07/07 13:58:16;;;;;;;5.40;1.90;;;;;;;;;;6268852;28;20013;-76
2023/07/07 14:01:25;;;;;;;7.00;2.00;;;;;;;;;;6268130;28;20021;-76
2023/07/07 14:04:31;;;;;;;5.60;1.98;;;;;;;;;;6256389;28;20392;-77
2023/07/07 14:07:35;;;;;;;5.15;2.03;;;;;;;;;;6273338;28;20021;-76
2023/07/07 14:10:38;;;;;;;3.42;1.60;;;;;;;;;;6267800;28;20447;-77
2023/07/07 14:13:38;;;;;;;4.50;1.85;;;;;;;;;;6271862;28;20079;-77
2023/07/07 14:16:42;;;;;;;3.72;1.60;;;;;;;;;;6269023;28;20012;-77
2023/07/07 14:19:54;;;;;;;6.03;1.60;;;;;;;;;;6260953;28;20041;-77
2023/07/07 14:22:56;;;;;;;3.22;1.50;;;;;;;;;;6270403;28;20021;-83
2023/07/07 14:25:57;;;;;;;2.80;1.60;;;;;;;;;;6270998;28;20017;-82
2023/07/07 14:28:57;;;;;;;2.45;1.80;;;;;;;;;;6270326;28;20102;-82
2023/07/07 14:32:02;;;;;;;3.35;1.92;;;;;;;;;;6266655;28;20020;-81
2023/07/07 14:35:11;;;;;;;6.13;1.63;;;;;;;;;;6269290;28;20021;-85
2023/07/07 14:38:30;;;;;;;5.32;1.85;;;;;;;;;;6268207;28;20179;-81
2023/07/07 14:41:53;;;;;;;3.03;1.80;;;;;;;;;;6264364;28;20025;-82
2023/07/07 14:44:55;;;;;;;5.43;1.75;;;;;;;;;;6272141;28;20036;-79
2023/07/07 14:47:56;;;;;;;2.55;1.70;;;;;;;;;;6268127;28;20535;-82
2023/07/07 14:51:06;;;;;;;3.45;2.10;;;;;;;;;;6263689;28;20067;-82
2023/07/07 14:54:12;;;;;;;4.88;2.38;;;;;;;;;;6269348;28;20017;-83
2023/07/07 14:57:16;;;;;;;4.53;2.05;;;;;;;;;;6267255;28;20063;-82
2023/07/07 15:00:35;;;;;;;6.15;2.10;;;;;;;;;;6269358;28;20017;-81
2023/07/07 15:03:38;;;;;;;6.88;1.92;;;;;;;;;;6272656;28;20021;-82
2023/07/07 15:06:40;;;;;;;4.60;2.25;;;;;;;;;;6255581;28;20390;-82
2023/07/07 15:09:42;;;;;;;3.55;1.60;;;;;;;;;;6272617;28;20017;-81
2023/07/07 15:12:42;;;;;;;4.43;1.90;;;;;;;;;;6271980;28;20017;-81
2023/07/07 15:15:43;;;;;;;4.63;1.80;;;;;;;;;;6271183;28;20028;-82
2023/07/07 15:18:43;;;;;;;4.93;2.03;;;;;;;;;;6271596;28;20087;-82
2023/07/07 15:21:43;;;;;;;5.07;2.23;;;;;;;;;;6272681;28;20025;-81
2023/07/07 15:24:43;;;;;;;2.75;1.70;;;;;;;;;;6270379;28;20060;-80
2023/07/07 15:27:44;;;;;;;3.95;1.70;;;;;;;;;;6271809;28;20094;-79
2023/07/07 15:30:44;;;;;;;2.40;1.83;;;;;;;;;;6271600;28;20012;-81
2023/07/07 15:33:45;;;;;;;3.00;1.90;;;;;;;;;;6271302;28;20047;-82
2023/07/07 15:36:47;;;;;;;3.55;2.03;;;;;;;;;;6270396;28;20290;-82
2023/07/07 15:39:47;;;;;;;3.70;2.60;;;;;;;;;;6251114;28;20061;-81
2023/07/07 15:42:50;;;;;;;5.30;2.67;;;;;;;;;;6270920;28;20940;-83
2023/07/07 15:45:50;;;;;;;5.57;2.15;;;;;;;;;;6271479;28;20489;-82
2023/07/07 15:48:50;;;;;;;5.18;1.83;;;;;;;;;;6265691;28;20119;-82
2023/07/07 15:51:53;;;;;;;5.73;1.90;;;;;;;;;;6252294;28;20745;-82
2023/07/07 15:54:53;;;;;;;4.38;1.88;;;;;;;;;;6267054;28;20390;-81
2023/07/07 15:57:53;;;;;;;3.28;2.00;;;;;;;;;;6271333;28;20055;-81
2023/07/07 16:00:55;;;;;;;3.60;1.50;;;;;;;;;;6270415;28;20426;-83
2023/07/07 16:03:56;;;;;;;4.13;1.40;;;;;;;;;;6271514;28;20043;-82
2023/07/07 16:06:56;;;;;;;6.40;2.33;;;;;;;;;;6266240;28;20021;-82
2023/07/07 16:09:56;;;;;;;3.67;2.03;;;;;;;;;;6270994;28;20096;-82
2023/07/07 16:12:56;;;;;;;3.93;2.07;;;;;;;;;;6267354;28;20012;-82
2023/07/07 16:15:56;;;;;;;4.43;1.70;;;;;;;;;;6270714;28;20083;-81
2023/07/07 16:18:57;;;;;;;3.20;2.13;;;;;;;;;;6270704;28;20110;-81
2023/07/07 16:21:57;;;;;;;3.92;2.13;;;;;;;;;;6268944;28;20034;-83
2023/07/07 16:24:57;;;;;;;5.35;2.35;;;;;;;;;;6267204;28;20068;-83
2023/07/07 16:27:57;;;;;;;4.28;2.10;;;;;;;;;;6265019;28;20215;-83
2023/07/07 16:30:57;;;;;;;2.17;1.73;;;;;;;;;;6264647;28;20028;-81
2023/07/07 16:33:58;;;;;;;6.00;2.83;;;;;;;;;;6265853;28;20478;-83
2023/07/07 16:36:58;;;;;;;4.45;2.10;;;;;;;;;;6275420;28;20021;-83
2023/07/07 16:39:58;;;;;;;4.72;2.20;;;;;;;;;;6262154;28;20061;-84
2023/07/07 16:43:01;;;;;;;4.50;2.10;;;;;;;;;;6268570;28;20036;-82
2023/07/07 16:46:07;;;;;;;2.92;1.98;;;;;;;;;;6265061;28;20021;-83
2023/07/07 16:49:18;;;;;;;4.43;2.08;;;;;;;;;;6262756;28;20056;-82
2023/07/07 16:52:19;;;;;;;4.28;1.80;;;;;;;;;;6265512;28;20044;-76
2023/07/07 16:55:20;;;;;;;4.68;2.10;;;;;;;;;;6268090;28;20096;-76
2023/07/07 16:58:20;;;;;;;6.93;2.30;;;;;;;;;;6268430;28;20047;-76
2023/07/07 17:01:21;;;;;;;5.80;2.90;;;;;;;;;;6267423;28;20711;-77
2023/07/07 17:04:24;;;;;;;6.47;2.92;;;;;;;;;;6262537;28;20108;-84
2023/07/07 17:07:24;;;;;;;11.05;3.90;;;;;;;;;;6255427;28;20123;-82
2023/07/07 17:10:24;;;;;;;8.82;3.45;;;;;;;;;;6270243;28;20021;-82
2023/07/07 17:13:26;;;;;;;8.80;3.40;;;;;;;;;;6268557;28;20462;-82
2023/07/07 17:16:29;;;;;;;5.55;3.35;;;;;;;;;;6251262;28;20114;-83
2023/07/07 17:19:29;;;;;;;7.93;3.60;;;;;;;;;;6270673;28;20072;-82
2023/07/07 17:22:29;;;;;;;13.80;3.60;;;;;;;;;;6270991;28;20035;-82
2023/07/07 17:25:30;;;;;;;8.13;3.08;;;;;;;;;;6268416;28;20059;-83
2023/07/07 17:28:30;;;;;;;3.97;2.15;;;;;;;;;;6257063;28;20052;-83
2023/07/07 17:31:31;;;;;;;3.88;2.50;;;;;;;;;;6259848;28;20112;-84
2023/07/07 17:34:31;;;;;;;5.95;2.30;;;;;;;;;;6268556;28;20468;-83
2023/07/07 17:37:32;;;;;;;7.23;2.40;;;;;;;;;;6269796;28;20120;-81
2023/07/07 17:40:38;;;;;;;5.77;2.50;;;;;;;;;;6257319;28;20036;-84
2023/07/07 17:43:39;;;;;;;5.72;2.42;;;;;;;;;;6261489;28;20554;-83
2023/07/07 17:46:41;;;;;;;7.85;2.47;;;;;;;;;;6253616;28;20076;-81
2023/07/07 17:49:41;;;;;;;6.38;2.50;;;;;;;;;;6240003;28;20111;-83
2023/07/07 17:52:41;;;;;;;5.07;3.43;;;;;;;;;;6258866;28;20044;-84
2023/07/07 17:55:41;;;;;;;4.87;2.83;;;;;;;;;;6263440;28;20017;-83
2023/07/07 17:58:43;;;;;;;6.03;2.72;;;;;;;;;;6268053;28;20083;-83
2023/07/07 18:01:43;;;;;;;8.18;3.25;;;;;;;;;;6252510;28;20029;-82
2023/07/07 18:04:43;;;;;;;8.60;3.10;;;;;;;;;;6267966;28;20509;-81
2023/07/07 18:07:44;;;;;;;8.43;3.05;;;;;;;;;;6264550;28;20044;-83
2023/07/07 18:10:44;;;;;;;;;;;;;;;;;;6272096;28;20030;-83
2023/07/07 18:13:44;;;;;;;7.68;3.25;;;;;;;;;;6268510;28;19919;-83